Time;durP1;ratioP1;P1;durP2;ratioP2;P2;SDS_P1;SDS_P2;PMS_P1;PMS_P2;Temp;Humidity;BMP_temperature;BMP_pressure;BME280_temperature;BME280_humidity;BME280_pressure;Samples;Min_cycle;Max_cycle;Signal;HPM_P1;HPM_P2
2023/10/01 00:00:17;;;;;;;5.85;3.20;;;;;;;23.98;61.34;100866.19;10374157;28;96667;-80
2023/10/01 00:05:29;;;;;;;3.50;2.88;;;;;;;23.85;61.97;100862.84;10375191;28;97260;-80
2023/10/01 00:10:32;;;;;;;3.00;2.65;;;;;;;23.66;62.46;100854.63;10373340;28;96707;-80
2023/10/01 00:15:37;;;;;;;2.92;2.63;;;;;;;23.41;64.03;100852.25;10374497;28;96750;-80
2023/10/01 00:20:42;;;;;;;4.70;2.70;;;;;;;23.25;64.37;100849.97;10373618;28;96710;-80
2023/10/01 00:25:47;;;;;;;3.20;2.60;;;;;;;23.10;65.95;100843.19;10374424;28;97479;-79
2023/10/01 00:30:51;;;;;;;3.80;3.07;;;;;;;22.99;65.59;100842.38;10374275;28;96662;-80
2023/10/01 00:35:57;;;;;;;3.50;2.90;;;;;;;22.92;66.06;100849.22;10373701;28;96724;-80
2023/10/01 00:41:00;;;;;;;4.00;2.97;;;;;;;22.94;65.82;100848.09;10373722;28;96637;-80
2023/10/01 00:46:04;;;;;;;5.78;3.00;;;;;;;22.88;66.34;100837.88;10372132;28;97096;-80
2023/10/01 00:51:10;;;;;;;4.85;3.03;;;;;;;22.82;66.70;100846.41;10372945;28;96684;-80
2023/10/01 00:56:13;;;;;;;3.33;2.90;;;;;;;22.76;66.93;100852.25;10377109;28;96645;-80
2023/10/01 01:01:17;;;;;;;3.70;3.07;;;;;;;22.66;66.88;100850.44;10413628;28;96767;-80
2023/10/01 01:06:24;;;;;;;3.70;3.20;;;;;;;22.60;67.52;100854.44;10414233;28;97298;-80
2023/10/01 01:11:27;;;;;;;5.57;2.80;;;;;;;22.58;67.16;100853.72;10413932;28;97063;-80
2023/10/01 01:16:30;;;;;;;4.43;2.70;;;;;;;22.58;67.72;100848.34;10413025;27;96751;-80
2023/10/01 01:21:41;;;;;;;3.92;2.92;;;;;;;22.69;66.79;100842.13;10413906;28;96772;-80
2023/10/01 01:26:51;;;;;;;5.40;3.10;;;;;;;22.65;67.12;100833.47;10413448;28;96780;-80
2023/10/01 01:32:06;;;;;;;3.17;2.88;;;;;;;22.71;66.23;100834.81;10412462;28;97095;-80
2023/10/01 01:37:19;;;;;;;3.45;2.60;;;;;;;22.57;66.69;100835.91;10412459;28;96968;-80
2023/10/01 01:42:25;;;;;;;3.83;2.88;;;;;;;22.64;66.43;100829.94;10413032;28;96699;-80
2023/10/01 01:47:30;;;;;;;3.47;2.38;;;;;;;22.48;67.09;100831.28;10412203;28;96787;-80
2023/10/01 01:52:33;;;;;;;3.55;2.95;;;;;;;22.32;67.44;100825.41;10412948;27;96646;-80
2023/10/01 01:57:38;;;;;;;3.60;2.60;;;;;;;22.18;68.80;100818.47;10381596;28;96874;-80
2023/10/01 02:02:59;;;;;;;4.35;2.88;;;;;;;22.06;69.60;100814.06;10370344;28;97274;-80
2023/10/01 02:08:07;;;;;;;4.03;2.70;;;;;;;21.89;70.51;100822.53;10371291;28;96585;-79
2023/10/01 02:13:13;;;;;;;3.75;3.22;;;;;;;21.83;71.23;100819.47;10371334;28;97303;-80
2023/10/01 02:18:19;;;;;;;4.13;2.92;;;;;;;21.77;71.34;100819.94;10370378;28;96663;-80
2023/10/01 02:23:32;;;;;;;6.05;3.10;;;;;;;21.72;70.84;100812.25;10370948;28;96590;-79
2023/10/01 02:28:37;;;;;;;3.38;2.70;;;;;;;21.74;71.25;100817.50;10369352;28;97221;-80
2023/10/01 02:39:27;;;;;;;3.50;3.00;;;;;;;22.22;68.14;100811.03;10485134;27;96660;-79
2023/10/01 02:44:34;;;;;;;3.35;3.05;;;;;;;22.05;68.83;100807.00;10455176;27;96626;-78
2023/10/01 02:49:51;;;;;;;3.47;2.63;;;;;;;21.84;70.38;100803.28;10455206;27;97276;-79
2023/10/01 02:55:00;;;;;;;3.33;2.70;;;;;;;21.79;69.93;100802.78;10454353;27;96673;-79
2023/10/01 03:05:28;;;;;;;3.50;2.85;;;;;;;21.82;69.97;100789.16;10450306;27;96932;-78
2023/10/01 03:10:37;;;;;;;3.83;2.80;;;;;;;22.26;67.71;100794.56;10454456;27;97635;-79
2023/10/01 03:15:43;;;;;;;4.20;2.60;;;;;;;21.99;69.01;100796.75;10453990;27;97316;-78
2023/10/01 03:21:07;;;;;;;4.95;3.05;;;;;;;21.83;69.52;100800.72;10454037;27;96580;-79
2023/10/01 03:26:12;;;;;;;4.00;2.95;;;;;;;22.00;69.13;100800.31;10454327;27;97022;-79
2023/10/01 03:31:15;;;;;;;3.70;2.55;;;;;;;21.95;68.99;100799.78;10453756;27;97037;-78
2023/10/01 03:36:24;;;;;;;3.97;2.90;;;;;;;21.88;69.62;100795.88;10452710;27;97046;-79
2023/10/01 03:41:52;;;;;;;3.90;3.28;;;;;;;22.20;67.61;100789.72;10453379;27;96662;-79
2023/10/01 03:46:56;;;;;;;2.95;2.67;;;;;;;22.41;66.29;100796.06;10445235;27;96919;-78
2023/10/01 03:51:59;;;;;;;3.80;2.90;;;;;;;21.91;68.74;100793.78;10425367;27;97424;-78
2023/10/01 03:57:11;;;;;;;3.20;2.60;;;;;;;21.89;68.89;100794.88;10424836;27;97249;-78
2023/10/01 04:02:43;;;;;;;3.47;2.92;;;;;;;21.75;69.11;100793.28;10424792;27;97486;-79
2023/10/01 04:07:47;;;;;;;3.85;3.05;;;;;;;21.76;69.21;100794.97;10424330;27;97369;-79
2023/10/01 04:12:54;;;;;;;3.45;2.72;;;;;;;21.67;69.29;100794.84;10424628;27;97786;-79
2023/10/01 04:18:19;;;;;;;3.80;2.88;;;;;;;21.99;67.34;100795.91;10423550;27;96860;-78
2023/10/01 04:23:27;;;;;;;3.50;2.92;;;;;;;21.87;67.99;100797.69;10424024;27;97248;-78
2023/10/01 04:28:36;;;;;;;3.10;2.72;;;;;;;21.87;68.15;100796.81;10423834;27;96598;-78
2023/10/01 04:33:42;;;;;;;3.70;3.08;;;;;;;21.67;68.96;100795.69;10423863;27;96726;-79
2023/10/01 04:38:48;;;;;;;4.05;2.65;;;;;;;21.93;67.44;100802.56;10422773;27;97545;-78
2023/10/01 04:43:55;;;;;;;3.38;3.05;;;;;;;22.08;66.46;100801.41;10423419;28;96885;-78
2023/10/01 04:49:08;;;;;;;3.60;3.00;;;;;;;22.24;65.69;100801.91;10423217;27;97149;-78
2023/10/01 04:54:21;;;;;;;3.20;2.80;;;;;;;22.24;65.54;100803.72;10423048;27;97399;-78
2023/10/01 04:59:27;;;;;;;3.63;2.92;;;;;;;22.22;65.46;100806.53;10422042;28;97094;-79
2023/10/01 05:04:30;;;;;;;4.43;2.67;;;;;;;22.25;65.20;100803.59;10422444;28;96754;-79
2023/10/01 05:09:36;;;;;;;2.88;2.58;;;;;;;22.25;64.92;100806.28;10422876;27;97215;-79
2023/10/01 05:14:59;;;;;;;3.67;3.05;;;;;;;22.30;64.14;100806.78;10421926;28;96663;-78
2023/10/01 05:20:08;;;;;;;3.65;2.75;;;;;;;22.34;64.06;100807.38;10422250;27;96691;-78
2023/10/01 05:25:12;;;;;;;3.60;2.40;;;;;;;22.29;64.18;100810.44;10422142;28;96691;-79
2023/10/01 05:35:43;;;;;;;3.45;2.83;;;;;;;22.20;64.08;100803.13;10420925;27;96783;-79
2023/10/01 05:40:52;;;;;;;4.05;2.90;;;;;;;22.23;63.96;100804.72;10421243;28;96824;-79
2023/10/01 05:46:01;;;;;;;3.72;2.75;;;;;;;22.20;63.82;100811.16;10421247;27;96791;-78
2023/10/01 05:51:06;;;;;;;4.97;2.85;;;;;;;22.14;64.31;100802.75;10421255;27;96691;-79
2023/10/01 05:56:11;;;;;;;2.92;2.42;;;;;;;22.07;64.03;100814.94;10399146;27;97342;-79
2023/10/01 06:01:16;;;;;;;4.13;3.08;;;;;;;22.08;63.80;100816.63;10378830;28;97153;-78
2023/10/01 06:06:26;;;;;;;4.13;3.05;;;;;;;22.09;63.97;100819.19;10419054;28;96787;-79
2023/10/01 06:11:41;;;;;;;3.50;2.72;;;;;;;22.08;63.90;100817.50;10420541;27;97091;-79
2023/10/01 06:16:49;;;;;;;3.67;2.80;;;;;;;22.08;63.87;100821.97;10419538;27;97313;-78
2023/10/01 06:21:53;;;;;;;3.42;2.70;;;;;;;22.09;63.80;100819.19;10419644;27;96932;-79
2023/10/01 06:26:56;;;;;;;3.33;2.78;;;;;;;22.12;63.47;100823.47;10420216;27;97227;-79
2023/10/01 06:32:04;;;;;;;4.07;2.67;;;;;;;22.07;63.78;100820.28;10420209;27;96764;-79
2023/10/01 06:37:07;;;;;;;2.63;2.42;;;;;;;22.10;63.65;100830.75;10419128;27;97408;-79
2023/10/01 06:42:19;;;;;;;4.80;3.15;;;;;;;22.10;63.74;100833.44;10420297;27;96906;-79
2023/10/01 06:47:26;;;;;;;3.53;3.00;;;;;;;22.07;63.56;100831.00;10419322;27;97494;-79
2023/10/01 06:52:32;;;;;;;3.97;3.30;;;;;;;22.05;63.64;100849.03;10419366;27;96787;-79
2023/10/01 06:57:38;;;;;;;4.65;3.10;;;;;;;22.10;63.32;100849.53;10419367;28;97122;-79
2023/10/01 07:02:45;;;;;;;3.38;3.08;;;;;;;22.17;63.09;100850.75;10418992;28;97338;-78
2023/10/01 07:07:49;;;;;;;3.10;2.80;;;;;;;22.16;63.04;100849.91;10418838;28;96678;-79
2023/10/01 07:13:04;;;;;;;3.30;2.83;;;;;;;22.20;62.91;100861.25;10418455;27;96829;-79
2023/10/01 07:18:19;;;;;;;3.72;2.40;;;;;;;22.66;62.16;100864.72;10418367;27;96881;-79
2023/10/01 07:23:23;;;;;;;3.30;2.65;;;;;;;23.92;59.41;100868.56;10421960;27;97608;-79
2023/10/01 07:28:26;;;;;;;3.17;2.45;;;;;;;24.94;57.27;100864.88;10425480;27;96588;-79
2023/10/01 07:33:31;;;;;;;3.07;2.50;;;;;;;25.95;54.93;100866.34;10425888;27;97337;-79
2023/10/01 07:38:46;;;;;;;2.50;2.30;;;;;;;26.69;52.87;100865.44;10424814;27;96806;-80
2023/10/01 07:43:53;;;;;;;2.72;2.15;;;;;;;27.82;51.23;100872.19;10425487;27;97350;-79
2023/10/01 07:49:00;;;;;;;3.33;2.25;;;;;;;28.36;49.51;100871.94;10425196;27;97217;-80
2023/10/01 07:54:09;;;;;;;3.05;2.30;;;;;;;28.69;48.59;100881.13;10425154;27;96673;-80
2023/10/01 07:59:28;;;;;;;2.22;2.03;;;;;;;29.07;47.09;100880.63;10424654;27;96815;-80
2023/10/01 08:09:54;;;;;;;2.15;1.95;;;;;;;31.43;43.36;100879.28;10424610;28;96747;-80
2023/10/01 08:20:22;;;;;;;3.05;1.95;;;;;;;31.36;41.04;100879.16;10423890;28;96720;-80
2023/10/01 08:25:27;;;;;;;2.42;1.92;;;;;;;31.86;40.85;100874.06;10424059;27;96804;-80
2023/10/01 08:30:39;;;;;;;2.55;2.13;;;;;;;32.17;40.05;100879.44;10417879;22;97199;-80
2023/10/01 08:35:56;;;;;;;2.30;1.90;;;;;;;31.82;39.62;100889.09;10415420;28;96771;-80
2023/10/01 08:41:03;;;;;;;2.35;1.95;;;;;;;31.37;39.54;100886.31;10422285;28;96813;-80
2023/10/01 08:46:18;;;;;;;2.13;1.92;;;;;;;31.47;38.55;100881.47;10423386;28;96913;-80
2023/10/01 08:51:30;;;;;;;2.40;2.08;;;;;;;31.51;38.87;100892.84;10423184;28;96860;-80
2023/10/01 08:56:35;;;;;;;2.40;2.00;;;;;;;30.79;39.08;100883.13;10423377;28;96979;-80
2023/10/01 09:01:38;;;;;;;2.35;1.90;;;;;;;31.04;38.89;100890.19;10422156;28;96663;-80
2023/10/01 09:07:05;;;;;;;2.15;1.80;;;;;;;30.95;39.10;100888.50;10423048;28;97278;-80
2023/10/01 09:12:18;;;;;;;2.33;1.98;;;;;;;31.02;38.89;100889.50;10422354;28;96721;-80
2023/10/01 09:17:26;;;;;;;2.08;1.80;;;;;;;31.56;37.65;100885.84;10422384;27;97212;-80
2023/10/01 09:22:43;;;;;;;2.78;2.10;;;;;;;31.18;37.40;100903.88;10422046;28;96776;-80
2023/10/01 09:27:57;;;;;;;2.38;1.77;;;;;;;32.04;36.04;100899.13;10421591;28;96873;-80
2023/10/01 09:33:14;;;;;;;2.33;1.80;;;;;;;32.50;35.96;100896.34;10421780;28;97179;-80
2023/10/01 09:38:27;;;;;;;3.15;1.80;;;;;;;32.35;35.55;100890.88;10421422;27;96668;-80
2023/10/01 09:43:37;;;;;;;2.03;1.60;;;;;;;32.79;34.40;100894.50;10421336;28;97395;-80
2023/10/01 09:48:48;;;;;;;2.28;1.77;;;;;;;32.43;35.74;100894.34;10421015;28;97205;-80
2023/10/01 09:54:00;;;;;;;2.33;1.90;;;;;;;32.99;34.49;100902.97;10421233;27;96751;-80
2023/10/01 09:59:07;;;;;;;2.13;1.87;;;;;;;33.37;34.17;100888.13;10421083;28;97062;-80
2023/10/01 10:04:19;;;;;;;2.25;2.00;;;;;;;32.96;34.63;100882.38;10420591;27;96771;-80
2023/10/01 10:09:27;;;;;;;2.20;1.60;;;;;;;33.28;33.58;100881.09;10420580;28;97032;-80
2023/10/01 10:14:56;;;;;;;2.55;1.67;;;;;;;33.85;33.31;100881.13;10420242;28;96779;-80
2023/10/01 10:20:15;;;;;;;2.80;1.75;;;;;;;34.16;32.77;100885.22;10420170;28;96956;-80
2023/10/01 10:25:26;;;;;;;2.40;1.60;;;;;;;35.20;31.67;100887.00;10415194;28;96544;-80
2023/10/01 10:30:30;;;;;;;2.40;1.77;;;;;;;35.24;31.50;100883.66;10419558;28;96859;-81
2023/10/01 10:35:39;;;;;;;2.22;1.75;;;;;;;35.25;31.23;100879.03;10419531;28;97106;-80
2023/10/01 10:41:07;;;;;;;1.80;1.70;;;;;;;35.64;30.77;100873.69;10419998;28;96807;-81
2023/10/01 10:46:10;;;;;;;1.92;1.60;;;;;;;35.71;30.63;100880.00;10419554;27;96710;-81
2023/10/01 10:51:46;;;;;;;2.08;1.50;;;;;;;36.68;29.89;100881.13;10419609;28;97507;-81
2023/10/01 10:56:53;;;;;;;2.03;1.60;;;;;;;37.37;28.51;100882.19;10420662;28;97438;-81
2023/10/01 11:01:58;;;;;;;2.03;1.45;;;;;;;37.10;28.49;100863.28;10426100;27;96892;-81
2023/10/01 11:07:04;;;;;;;3.15;2.05;;;;;;;36.82;29.74;100852.59;10426852;28;97388;-81
2023/10/01 11:12:21;;;;;;;1.65;1.48;;;;;;;36.99;29.12;100859.31;10426456;28;96732;-81
2023/10/01 11:17:25;;;;;;;1.73;1.42;;;;;;;37.09;29.52;100848.69;10424523;28;96696;-81
2023/10/01 11:22:29;;;;;;;2.13;1.80;;;;;;;37.66;28.57;100843.13;10425277;28;97585;-81
2023/10/01 11:27:44;;;;;;;2.03;1.80;;;;;;;37.55;27.86;100849.34;10423425;28;96635;-81
2023/10/01 11:38:19;;;;;;;2.30;1.73;;;;;;;37.99;26.58;100834.66;10344896;28;96821;-81
2023/10/01 11:43:32;;;;;;;1.73;1.40;;;;;;;38.26;26.80;100822.41;10381821;28;96933;-81
2023/10/01 11:48:56;;;;;;;1.52;1.42;;;;;;;39.27;25.17;100819.97;10381676;28;96759;-81
2023/10/01 11:54:09;;;;;;;1.70;1.42;;;;;;;39.18;25.48;100811.19;10382032;28;96769;-81
2023/10/01 11:59:22;;;;;;;1.70;1.30;;;;;;;38.21;25.42;100810.34;10381843;28;96985;-81
2023/10/01 12:04:43;;;;;;;1.73;1.38;;;;;;;38.34;25.30;100802.84;10381265;28;96765;-81
2023/10/01 12:09:50;;;;;;;2.47;1.40;;;;;;;38.01;25.76;100795.94;10380599;28;96679;-81
2023/10/01 12:15:33;;;;;;;3.30;1.50;;;;;;;38.45;25.39;100793.84;10381499;28;97366;-81
2023/10/01 12:20:23;;;;;;;1.80;1.35;;;;;;;38.35;24.84;100793.50;10380501;28;96682;-81
2023/10/01 12:25:42;;;;;;;2.20;1.65;;;;;;;39.87;23.53;100783.00;10380756;28;96688;-81
2023/10/01 12:30:57;;;;;;;1.63;1.40;;;;;;;39.32;24.02;100782.41;10405672;28;97118;-81
2023/10/01 12:36:03;;;;;;;1.48;1.30;;;;;;;40.73;22.73;100769.31;10421322;28;98581;-81
2023/10/01 12:41:09;;;;;;;1.30;1.20;;;;;;;40.58;23.27;100763.47;10421831;28;96754;-81
2023/10/01 12:46:18;;;;;;;2.70;1.50;;;;;;;40.26;23.04;100751.16;10421624;28;96693;-81
2023/10/01 12:51:33;;;;;;;1.90;1.30;;;;;;;42.38;20.73;100759.59;10421363;28;97244;-81
2023/10/01 12:56:48;;;;;;;1.58;1.30;;;;;;;43.08;20.80;100745.84;10421752;28;96701;-81
2023/10/01 13:01:55;;;;;;;1.70;1.40;;;;;;;43.00;20.61;100741.59;10421522;28;96829;-81
2023/10/01 13:07:06;;;;;;;1.83;1.40;;;;;;;43.73;20.39;100735.34;10421534;28;97414;-81
2023/10/01 13:12:15;;;;;;;2.03;1.45;;;;;;;44.23;20.22;100726.59;10420628;27;96668;-81
2023/10/01 13:17:20;;;;;;;1.95;1.67;;;;;;;43.51;20.30;100713.31;10420525;28;97065;-79
2023/10/01 13:22:25;;;;;;;1.85;1.42;;;;;;;43.30;20.88;100708.66;10418241;27;97104;-79
2023/10/01 13:27:28;;;;;;;1.98;1.17;;;;;;;43.97;20.49;100703.38;10420122;28;96776;-79
2023/10/01 13:32:35;;;;;;;1.90;1.50;;;;;;;43.95;20.68;100687.00;10419924;28;96621;-79
2023/10/01 13:37:45;;;;;;;2.35;1.83;;;;;;;43.62;21.03;100673.44;10378361;28;96776;-79
2023/10/01 14:09:51;;;;;;;1.88;1.70;;;;;;;42.79;21.79;100642.72;10418301;28;96911;-79
2023/10/01 14:14:54;;;;;;;2.40;1.77;;;;;;;42.81;21.76;100635.84;10417689;28;96755;-79
2023/10/01 14:19:59;;;;;;;2.55;1.70;;;;;;;41.98;22.51;100633.41;10418535;27;96985;-79
2023/10/01 14:25:20;;;;;;;1.70;1.50;;;;;;;41.96;22.43;100620.91;10418737;28;97456;-79
2023/10/01 14:30:26;;;;;;;1.60;1.50;;;;;;;41.89;22.43;100617.50;10418235;28;96949;-79
2023/10/01 14:35:37;;;;;;;2.55;1.55;;;;;;;41.79;22.27;100609.91;10417595;27;96785;-79
2023/10/01 14:40:43;;;;;;;2.50;1.58;;;;;;;41.44;22.49;100609.38;10417542;28;96672;-79
2023/10/01 14:45:46;;;;;;;2.03;1.52;;;;;;;41.20;22.41;100598.72;10418161;28;96997;-79
2023/10/01 14:50:56;;;;;;;1.95;1.50;;;;;;;41.01;22.61;100595.38;10418374;28;96743;-78
2023/10/01 14:56:04;;;;;;;2.10;1.67;;;;;;;40.15;23.01;100583.75;10417639;28;96675;-79
2023/10/01 15:01:09;;;;;;;1.60;1.45;;;;;;;39.71;23.21;100583.34;10417521;28;96750;-79
2023/10/01 15:06:17;;;;;;;2.15;1.70;;;;;;;39.65;22.84;100573.28;10416455;28;96767;-79
2023/10/01 15:11:23;;;;;;;2.22;1.52;;;;;;;39.11;23.53;100570.00;10417082;28;96840;-80
2023/10/01 15:16:30;;;;;;;2.22;1.48;;;;;;;38.85;24.05;100574.88;10417401;27;97543;-80
2023/10/01 15:22:02;;;;;;;1.50;1.40;;;;;;;38.28;23.83;100567.28;10416797;27;96748;-81
2023/10/01 15:27:06;;;;;;;2.60;1.48;;;;;;;37.75;24.35;100563.44;10416475;28;96855;-80
2023/10/01 15:32:16;;;;;;;1.92;1.35;;;;;;;37.25;25.00;100562.66;10416318;28;97050;-80
2023/10/01 15:37:21;;;;;;;1.83;1.50;;;;;;;36.98;24.82;100558.50;10416611;28;96642;-81
2023/10/01 15:42:24;;;;;;;1.85;1.50;;;;;;;36.45;25.75;100560.75;10417539;28;96671;-81
2023/10/01 15:47:39;;;;;;;1.95;1.35;;;;;;;36.08;26.25;100552.50;10423732;27;96781;-81
2023/10/01 15:52:49;;;;;;;1.95;1.40;;;;;;;35.74;26.67;100556.38;10423408;27;96592;-80
2023/10/01 15:58:01;;;;;;;2.17;1.38;;;;;;;35.58;26.59;100549.47;10422218;27;96607;-80
2023/10/01 16:03:07;;;;;;;1.83;1.55;;;;;;;35.38;27.07;100551.41;10423751;28;96933;-80
2023/10/01 16:08:20;;;;;;;2.70;1.65;;;;;;;35.09;27.14;100543.66;10422892;28;96887;-80
2023/10/01 16:13:28;;;;;;;2.05;1.73;;;;;;;34.96;27.46;100531.88;10422911;27;96573;-79
2023/10/01 16:18:33;;;;;;;1.77;1.60;;;;;;;34.80;27.70;100537.75;10422089;27;96737;-80
2023/10/01 16:23:40;;;;;;;2.13;1.40;;;;;;;34.47;28.44;100535.78;10422096;27;96969;-80
2023/10/01 16:28:46;;;;;;;2.72;1.83;;;;;;;34.17;29.63;100536.34;10421970;28;96812;-80
2023/10/01 16:33:59;;;;;;;3.45;2.30;;;;;;;33.95;31.15;100535.66;10421862;27;97042;-79
2023/10/01 16:39:12;;;;;;;2.92;2.10;;;;;;;33.76;32.10;100541.84;10422270;28;96598;-80
2023/10/01 16:44:16;;;;;;;2.43;2.23;;;;;;;33.45;32.48;100549.63;10421684;28;97030;-79
2023/10/01 16:49:19;;;;;;;3.05;2.40;;;;;;;33.22;32.75;100541.69;10420028;27;96773;-80
2023/10/01 16:54:37;;;;;;;3.65;2.40;;;;;;;32.92;34.12;100548.38;10421435;28;97706;-80
2023/10/01 16:59:56;;;;;;;2.97;2.30;;;;;;;32.86;34.37;100553.75;10421739;28;97476;-79
2023/10/01 17:05:06;;;;;;;3.17;2.70;;;;;;;32.66;35.16;100550.81;10421343;28;96795;-79
2023/10/01 17:10:13;;;;;;;6.03;2.70;;;;;;;32.47;35.36;100553.34;10420815;27;96845;-79
2023/10/01 17:15:41;;;;;;;2.83;2.10;;;;;;;32.18;36.82;100562.44;10420581;28;96751;-78
2023/10/01 17:20:50;;;;;;;4.22;2.47;;;;;;;32.02;36.95;100559.94;10420358;28;96534;-79
2023/10/01 17:26:00;;;;;;;2.45;2.10;;;;;;;31.84;37.11;100560.34;10420799;28;97292;-79
2023/10/01 17:31:07;;;;;;;3.28;2.50;;;;;;;31.66;37.42;100553.56;10419340;28;96890;-79
2023/10/01 17:36:12;;;;;;;2.72;2.22;;;;;;;31.56;37.68;100555.75;10419578;28;97377;-79
2023/10/01 17:41:22;;;;;;;3.47;2.50;;;;;;;31.44;38.62;100555.38;10418145;28;96558;-79
2023/10/01 17:46:33;;;;;;;3.00;2.40;;;;;;;31.31;39.00;100563.31;10419469;28;96644;-79
2023/10/01 17:51:44;;;;;;;3.03;2.38;;;;;;;30.97;40.12;100552.94;10419755;28;97067;-78
2023/10/01 17:56:49;;;;;;;3.17;2.42;;;;;;;30.71;40.86;100562.50;10419141;28;97165;-79
2023/10/01 18:01:52;;;;;;;3.05;2.55;;;;;;;30.44;41.66;100560.31;10418852;28;96774;-79
2023/10/01 18:06:55;;;;;;;4.40;2.70;;;;;;;30.17;42.75;100567.09;10418589;28;96690;-78
2023/10/01 18:12:02;;;;;;;3.78;2.67;;;;;;;29.88;43.49;100567.69;10419039;28;96801;-78
2023/10/01 18:17:05;;;;;;;3.22;2.90;;;;;;;29.65;44.48;100584.94;10419650;28;97154;-78
2023/10/01 18:22:14;;;;;;;4.07;2.92;;;;;;;29.53;44.51;100580.91;10418349;28;96672;-78
2023/10/01 18:27:23;;;;;;;3.65;2.78;;;;;;;29.41;44.88;100593.09;10418149;28;96698;-78
2023/10/01 18:32:27;;;;;;;3.40;2.80;;;;;;;29.26;44.93;100597.56;10416197;28;96861;-78
2023/10/01 18:37:35;;;;;;;3.70;3.10;;;;;;;29.02;45.78;100611.94;10418433;28;96917;-78
2023/10/01 18:42:43;;;;;;;4.82;3.40;;;;;;;28.91;46.01;100610.44;10417754;28;96718;-78
2023/10/01 18:47:47;;;;;;;4.00;2.92;;;;;;;28.87;45.98;100619.03;10417721;27;97299;-78
2023/10/01 18:52:51;;;;;;;4.18;3.10;;;;;;;28.75;46.27;100623.94;10417504;28;96826;-79
2023/10/01 18:57:56;;;;;;;;;;;;;;;28.65;46.99;100623.28;10418178;27;97176;-78
2023/10/01 19:02:59;;;;;;;3.47;2.75;;;;;;;28.39;46.56;100627.09;10417660;28;96702;-78
2023/10/01 19:08:02;;;;;;;3.22;2.53;;;;;;;28.22;47.27;100631.56;10418329;27;96735;-78
2023/10/01 19:13:07;;;;;;;3.70;2.72;;;;;;;28.13;47.49;100626.31;10417132;28;96707;-78
2023/10/01 19:18:10;;;;;;;4.25;3.00;;;;;;;27.96;47.79;100633.53;10418426;27;96714;-78
2023/10/01 19:23:17;;;;;;;4.30;3.08;;;;;;;27.81;48.20;100637.81;10423161;28;96644;-78
2023/10/01 19:28:27;;;;;;;4.45;2.83;;;;;;;27.63;48.48;100642.44;10423533;28;96901;-78
2023/10/01 19:33:36;;;;;;;5.28;3.10;;;;;;;27.49;49.03;100645.72;10423693;28;96733;-78
2023/10/01 19:38:46;;;;;;;4.00;3.10;;;;;;;27.34;49.20;100648.16;10423410;27;96709;-78
2023/10/01 19:43:54;;;;;;;4.53;3.20;;;;;;;27.56;49.04;100649.50;10423647;28;96708;-78
2023/10/01 19:48:58;;;;;;;3.65;3.05;;;;;;;27.22;49.78;100656.66;10423430;28;96742;-78
2023/10/01 19:54:05;;;;;;;4.37;2.97;;;;;;;26.87;50.56;100654.84;10423339;28;96986;-78
2023/10/01 19:59:16;;;;;;;3.25;2.88;;;;;;;26.91;50.63;100661.59;10423897;28;97129;-78
2023/10/01 20:04:20;;;;;;;4.25;3.35;;;;;;;26.89;50.81;100664.47;10423120;27;96806;-79
2023/10/01 20:09:26;;;;;;;4.00;2.90;;;;;;;26.72;50.79;100662.63;10422815;27;96677;-78
2023/10/01 20:14:34;;;;;;;4.38;3.20;;;;;;;26.39;51.89;100662.41;10421320;28;96743;-78
2023/10/01 20:19:43;;;;;;;4.05;2.80;;;;;;;26.50;51.52;100662.19;10422584;28;97091;-78
2023/10/01 20:24:52;;;;;;;4.45;3.17;;;;;;;26.33;51.68;100661.16;10421961;27;96602;-78
2023/10/01 20:29:57;;;;;;;3.33;3.03;;;;;;;26.24;52.13;100667.44;10421260;27;96973;-79
2023/10/01 20:35:01;;;;;;;3.50;3.00;;;;;;;26.28;52.02;100665.31;10421278;28;96822;-78
2023/10/01 20:40:09;;;;;;;3.97;3.28;;;;;;;26.05;52.62;100678.34;10421661;28;97016;-78
2023/10/01 20:45:23;;;;;;;4.00;3.15;;;;;;;25.80;53.34;100685.25;10421558;28;96672;-78
2023/10/01 20:50:32;;;;;;;4.93;3.27;;;;;;;25.70;53.65;100687.13;10421996;27;96876;-78
2023/10/01 20:55:37;;;;;;;3.78;3.15;;;;;;;25.66;53.83;100685.66;10421466;28;96889;-78
2023/10/01 21:00:50;;;;;;;3.88;3.28;;;;;;;25.70;53.75;100688.97;10420567;22;98831;-78
2023/10/01 21:05:55;;;;;;;3.80;2.95;;;;;;;25.64;53.92;100692.22;10447237;27;97430;-78
2023/10/01 21:11:02;;;;;;;3.72;3.30;;;;;;;25.56;54.00;100697.47;10421022;28;97172;-78
2023/10/01 21:16:06;;;;;;;3.88;3.15;;;;;;;25.36;54.73;100714.69;10420895;28;96630;-78
2023/10/01 21:21:11;;;;;;;4.60;3.50;;;;;;;25.41;54.49;100715.09;10433239;27;97078;-78
2023/10/01 21:26:23;;;;;;;4.18;3.78;;;;;;;25.21;54.85;100718.81;10462574;27;97402;-78
2023/10/01 21:31:28;;;;;;;5.00;3.28;;;;;;;25.33;54.65;100715.81;10461719;27;96620;-78
2023/10/01 21:36:31;;;;;;;4.68;3.45;;;;;;;25.35;54.63;100715.66;10462075;27;97386;-78
2023/10/01 21:41:35;;;;;;;4.03;3.43;;;;;;;25.25;54.64;100714.81;10420265;27;96744;-78
2023/10/01 21:46:40;;;;;;;4.57;3.50;;;;;;;25.20;55.01;100711.69;10419882;28;96751;-78
2023/10/01 21:51:45;;;;;;;4.35;3.67;;;;;;;25.14;55.00;100712.28;10419908;28;96911;-78
2023/10/01 21:56:49;;;;;;;4.20;3.35;;;;;;;24.84;55.68;100714.06;10419036;27;97257;-78
2023/10/01 22:02:01;;;;;;;4.22;3.30;;;;;;;24.86;55.51;100716.63;10418649;28;96793;-78
2023/10/01 22:07:05;;;;;;;4.05;3.63;;;;;;;24.78;55.91;100714.63;10419420;28;97327;-78
2023/10/01 22:12:14;;;;;;;;;;;;;;;24.82;56.93;100717.91;10419999;27;97334;-78
2023/10/01 22:17:33;;;;;;;5.03;3.20;;;;;;;24.59;56.15;100709.22;10419379;28;96968;-78
2023/10/01 22:22:38;;;;;;;4.22;3.10;;;;;;;24.64;55.87;100708.78;10418790;28;96646;-78
2023/10/01 22:28:02;;;;;;;4.95;3.47;;;;;;;24.81;55.61;100714.34;10419010;27;96880;-78
2023/10/01 22:33:08;;;;;;;4.20;3.20;;;;;;;24.57;56.43;100710.34;10419209;28;96830;-78
2023/10/01 22:38:22;;;;;;;4.60;3.70;;;;;;;24.57;56.33;100702.25;10418121;28;96771;-78
2023/10/01 22:43:26;;;;;;;4.78;3.25;;;;;;;24.55;56.59;100699.72;10418243;28;96733;-78
2023/10/01 22:48:43;;;;;;;3.88;3.47;;;;;;;24.54;56.60;100689.94;10417665;27;96741;-78
2023/10/01 22:53:48;;;;;;;4.22;3.20;;;;;;;24.47;56.87;100696.00;10422040;27;96899;-78
2023/10/01 22:58:52;;;;;;;;;;;;;;;24.13;58.37;100697.31;10425058;28;97377;-78
2023/10/01 23:04:09;;;;;;;3.92;3.38;;;;;;;23.98;57.74;100699.50;10425455;27;96730;-78
2023/10/01 23:09:18;;;;;;;4.18;3.55;;;;;;;23.79;58.15;100696.72;10424999;28;97473;-78
2023/10/01 23:14:22;;;;;;;4.60;3.53;;;;;;;23.75;58.37;100697.97;10424733;28;97282;-78
2023/10/01 23:24:51;;;;;;;3.88;3.30;;;;;;;23.81;58.68;100701.94;10425672;28;96865;-78
2023/10/01 23:29:54;;;;;;;3.53;3.15;;;;;;;23.68;58.99;100694.94;10424057;28;96997;-78
2023/10/01 23:35:00;;;;;;;6.15;3.85;;;;;;;23.57;59.14;100688.81;10423565;28;96753;-78
2023/10/01 23:40:10;;;;;;;5.28;3.47;;;;;;;23.52;59.29;100685.66;10423430;27;97952;-78
2023/10/01 23:45:16;;;;;;;4.57;3.53;;;;;;;23.63;59.23;100681.06;10423865;28;97315;-78
2023/10/01 23:50:30;;;;;;;5.13;3.83;;;;;;;23.52;59.50;100682.97;10423490;28;97231;-78
2023/10/01 23:55:36;;;;;;;4.43;3.45;;;;;;;23.43;59.62;100681.91;10415020;27;97329;-78
